Archival Weather

Dewar Lakes

Dewar Lakes, Canada (CWUW)

Report from: Friday, May 26, 2023 1:00 AM EDT
Current time: Thursday, July 18, 2024 11:08 PM EDT

Current weather – Weather history – Daily summaries
Weather forecast

Present weatherSM
Temperature-15.0°C (5.0°F)
Wind chill-27.7°C (-17.9°F)
Dew point-17.0°C (1.4°F)
Winds 23 kts (11.8 m/s, 26.5 mph) Northwest (310°)
Visibility0 ft. (0 m)
Altimeter29.45 in.Hg (997 mB)
Relative humidity85 %
Density altitude-3,210 ft. (-978 m)
Remarks Fully automated report
Flight conditions Low Instrument Meteorological Conditions
Raw dataCWUW 260500Z AUTO 31023KT ////SM ////// M15/M17 A2945
An error has occurred. This application may no longer respond until reloaded. Reload 🗙